sensor_id;sensor_type;location;lat;lon;timestamp;P1;durP1;ratioP1;P2;durP2;ratioP2
51957;SDS011;41120;51.820;20.804;2023-01-19T00:09:33;45.75;;;21.50;;
51957;SDS011;41120;51.820;20.804;2023-01-19T00:15:00;42.15;;;20.60;;
51957;SDS011;41120;51.820;20.804;2023-01-19T00:17:28;38.55;;;19.65;;
51957;SDS011;41120;51.820;20.804;2023-01-19T00:22:45;38.85;;;19.88;;
51957;SDS011;41120;51.820;20.804;2023-01-19T00:34:17;36.80;;;19.13;;
51957;SDS011;41120;51.820;20.804;2023-01-19T00:36:47;38.35;;;20.13;;
51957;SDS011;41120;51.820;20.804;2023-01-19T00:42:53;40.53;;;22.02;;
51957;SDS011;41120;51.820;20.804;2023-01-19T00:45:20;43.95;;;24.17;;
51957;SDS011;41120;51.820;20.804;2023-01-19T00:50:44;46.78;;;23.33;;
51957;SDS011;41120;51.820;20.804;2023-01-19T00:58:59;43.92;;;20.20;;
51957;SDS011;41120;51.820;20.804;2023-01-19T01:01:43;44.83;;;21.90;;
51957;SDS011;41120;51.820;20.804;2023-01-19T01:04:20;40.80;;;20.95;;
51957;SDS011;41120;51.820;20.804;2023-01-19T01:13:15;43.22;;;21.73;;
51957;SDS011;41120;51.820;20.804;2023-01-19T01:15:58;43.72;;;21.13;;
51957;SDS011;41120;51.820;20.804;2023-01-19T01:18:30;40.55;;;20.17;;
51957;SDS011;41120;51.820;20.804;2023-01-19T01:20:59;46.22;;;21.65;;
51957;SDS011;41120;51.820;20.804;2023-01-19T01:29:39;44.97;;;21.85;;
51957;SDS011;41120;51.820;20.804;2023-01-19T01:34:56;46.40;;;20.98;;
51957;SDS011;41120;51.820;20.804;2023-01-19T01:37:31;49.10;;;22.37;;
51957;SDS011;41120;51.820;20.804;2023-01-19T01:42:38;47.75;;;22.58;;
51957;SDS011;41120;51.820;20.804;2023-01-19T01:48:33;64.65;;;26.90;;
51957;SDS011;41120;51.820;20.804;2023-01-19T01:57:04;43.50;;;19.88;;
51957;SDS011;41120;51.820;20.804;2023-01-19T02:02:18;46.90;;;20.98;;
51957;SDS011;41120;51.820;20.804;2023-01-19T02:08:12;51.03;;;22.05;;
51957;SDS011;41120;51.820;20.804;2023-01-19T02:11:09;46.70;;;21.58;;
51957;SDS011;41120;51.820;20.804;2023-01-19T02:14:04;53.60;;;23.30;;
51957;SDS011;41120;51.820;20.804;2023-01-19T02:25:51;101.25;;;34.45;;
51957;SDS011;41120;51.820;20.804;2023-01-19T02:28:31;59.97;;;25.15;;
51957;SDS011;41120;51.820;20.804;2023-01-19T02:31:03;50.47;;;22.38;;
51957;SDS011;41120;51.820;20.804;2023-01-19T02:33:31;57.72;;;24.52;;
51957;SDS011;41120;51.820;20.804;2023-01-19T02:36:06;64.88;;;25.65;;
51957;SDS011;41120;51.820;20.804;2023-01-19T02:38:46;73.65;;;28.45;;
51957;SDS011;41120;51.820;20.804;2023-01-19T02:41:23;81.05;;;30.50;;
51957;SDS011;41120;51.820;20.804;2023-01-19T02:50:26;79.85;;;30.15;;
51957;SDS011;41120;51.820;20.804;2023-01-19T03:08:09;166.00;;;50.13;;
51957;SDS011;41120;51.820;20.804;2023-01-19T03:20:05;140.45;;;46.17;;
51957;SDS011;41120;51.820;20.804;2023-01-19T03:25:34;176.32;;;56.67;;
51957;SDS011;41120;51.820;20.804;2023-01-19T03:31:04;125.05;;;42.63;;
51957;SDS011;41120;51.820;20.804;2023-01-19T03:36:44;146.20;;;45.25;;
51957;SDS011;41120;51.820;20.804;2023-01-19T03:39:33;144.27;;;45.13;;
51957;SDS011;41120;51.820;20.804;2023-01-19T03:54:32;147.98;;;47.50;;
51957;SDS011;41120;51.820;20.804;2023-01-19T03:56:59;173.98;;;51.90;;
51957;SDS011;41120;51.820;20.804;2023-01-19T04:02:02;155.63;;;50.00;;
51957;SDS011;41120;51.820;20.804;2023-01-19T04:04:36;150.55;;;46.92;;
51957;SDS011;41120;51.820;20.804;2023-01-19T04:07:08;143.20;;;44.72;;
51957;SDS011;41120;51.820;20.804;2023-01-19T04:12:33;124.50;;;40.63;;
51957;SDS011;41120;51.820;20.804;2023-01-19T04:15:05;107.88;;;37.95;;
51957;SDS011;41120;51.820;20.804;2023-01-19T04:20:33;101.28;;;34.30;;
51957;SDS011;41120;51.820;20.804;2023-01-19T04:25:34;95.07;;;33.97;;
51957;SDS011;41120;51.820;20.804;2023-01-19T04:28:06;81.60;;;30.67;;
51957;SDS011;41120;51.820;20.804;2023-01-19T04:30:34;83.32;;;32.08;;
51957;SDS011;41120;51.820;20.804;2023-01-19T04:35:51;76.25;;;29.77;;
51957;SDS011;41120;51.820;20.804;2023-01-19T04:46:34;75.82;;;29.48;;
51957;SDS011;41120;51.820;20.804;2023-01-19T04:49:01;65.85;;;27.38;;
51957;SDS011;41120;51.820;20.804;2023-01-19T04:54:54;62.30;;;26.35;;
51957;SDS011;41120;51.820;20.804;2023-01-19T04:57:29;61.38;;;27.27;;
51957;SDS011;41120;51.820;20.804;2023-01-19T05:00:04;58.80;;;26.23;;
51957;SDS011;41120;51.820;20.804;2023-01-19T05:02:34;60.97;;;25.45;;
51957;SDS011;41120;51.820;20.804;2023-01-19T05:05:01;63.78;;;26.63;;
51957;SDS011;41120;51.820;20.804;2023-01-19T05:10:24;67.47;;;28.67;;
51957;SDS011;41120;51.820;20.804;2023-01-19T05:12:58;70.78;;;27.50;;
51957;SDS011;41120;51.820;20.804;2023-01-19T05:15:30;68.43;;;28.60;;
51957;SDS011;41120;51.820;20.804;2023-01-19T05:17:57;75.90;;;29.58;;
51957;SDS011;41120;51.820;20.804;2023-01-19T05:20:25;73.00;;;29.02;;
51957;SDS011;41120;51.820;20.804;2023-01-19T05:22:54;70.65;;;26.98;;
51957;SDS011;41120;51.820;20.804;2023-01-19T05:25:35;77.45;;;28.88;;
51957;SDS011;41120;51.820;20.804;2023-01-19T05:28:17;75.57;;;29.45;;
51957;SDS011;41120;51.820;20.804;2023-01-19T05:33:56;75.53;;;28.90;;
51957;SDS011;41120;51.820;20.804;2023-01-19T05:36:34;71.65;;;28.70;;
51957;SDS011;41120;51.820;20.804;2023-01-19T05:39:08;61.63;;;26.17;;
51957;SDS011;41120;51.820;20.804;2023-01-19T05:41:34;67.25;;;26.80;;
51957;SDS011;41120;51.820;20.804;2023-01-19T05:47:09;59.72;;;24.52;;
51957;SDS011;41120;51.820;20.804;2023-01-19T05:56:06;56.40;;;24.08;;
51957;SDS011;41120;51.820;20.804;2023-01-19T05:58:35;53.83;;;24.70;;
51957;SDS011;41120;51.820;20.804;2023-01-19T06:01:08;58.72;;;25.85;;
51957;SDS011;41120;51.820;20.804;2023-01-19T06:03:38;51.80;;;23.70;;
51957;SDS011;41120;51.820;20.804;2023-01-19T06:08:52;62.13;;;26.98;;
51957;SDS011;41120;51.820;20.804;2023-01-19T06:11:21;62.03;;;26.85;;
51957;SDS011;41120;51.820;20.804;2023-01-19T06:13:54;55.20;;;24.88;;
51957;SDS011;41120;51.820;20.804;2023-01-19T06:16:26;52.63;;;24.55;;
51957;SDS011;41120;51.820;20.804;2023-01-19T06:19:06;50.47;;;23.45;;
51957;SDS011;41120;51.820;20.804;2023-01-19T06:21:35;51.03;;;24.60;;
51957;SDS011;41120;51.820;20.804;2023-01-19T06:27:26;61.40;;;25.80;;
51957;SDS011;41120;51.820;20.804;2023-01-19T06:29:53;59.17;;;25.65;;
51957;SDS011;41120;51.820;20.804;2023-01-19T06:32:18;56.67;;;26.60;;
51957;SDS011;41120;51.820;20.804;2023-01-19T06:34:45;58.40;;;27.00;;
51957;SDS011;41120;51.820;20.804;2023-01-19T06:37:11;61.15;;;27.98;;
51957;SDS011;41120;51.820;20.804;2023-01-19T06:39:37;57.17;;;27.33;;
51957;SDS011;41120;51.820;20.804;2023-01-19T06:42:06;63.75;;;28.98;;
51957;SDS011;41120;51.820;20.804;2023-01-19T06:44:36;58.35;;;27.45;;
51957;SDS011;41120;51.820;20.804;2023-01-19T06:58:36;72.10;;;28.38;;
51957;SDS011;41120;51.820;20.804;2023-01-19T07:03:53;83.20;;;33.95;;
51957;SDS011;41120;51.820;20.804;2023-01-19T07:06:30;97.88;;;37.33;;
51957;SDS011;41120;51.820;20.804;2023-01-19T07:15:04;72.03;;;30.35;;
51957;SDS011;41120;51.820;20.804;2023-01-19T07:17:37;72.80;;;30.20;;
51957;SDS011;41120;51.820;20.804;2023-01-19T07:20:14;74.40;;;29.52;;
51957;SDS011;41120;51.820;20.804;2023-01-19T07:22:53;77.70;;;31.67;;
51957;SDS011;41120;51.820;20.804;2023-01-19T07:25:20;77.47;;;32.92;;
51957;SDS011;41120;51.820;20.804;2023-01-19T07:27:48;79.32;;;33.42;;
51957;SDS011;41120;51.820;20.804;2023-01-19T07:30:30;77.80;;;33.58;;
51957;SDS011;41120;51.820;20.804;2023-01-19T07:33:03;74.95;;;32.10;;
51957;SDS011;41120;51.820;20.804;2023-01-19T07:35:31;64.57;;;29.88;;
51957;SDS011;41120;51.820;20.804;2023-01-19T07:37:57;65.07;;;30.23;;
51957;SDS011;41120;51.820;20.804;2023-01-19T07:40:31;68.55;;;29.42;;
51957;SDS011;41120;51.820;20.804;2023-01-19T07:43:06;59.95;;;27.48;;
51957;SDS011;41120;51.820;20.804;2023-01-19T07:45:36;60.88;;;28.23;;
51957;SDS011;41120;51.820;20.804;2023-01-19T07:48:03;60.53;;;29.02;;
51957;SDS011;41120;51.820;20.804;2023-01-19T07:50:31;64.55;;;28.85;;
51957;SDS011;41120;51.820;20.804;2023-01-19T07:53:07;58.53;;;28.25;;
51957;SDS011;41120;51.820;20.804;2023-01-19T07:55:34;65.72;;;28.38;;
51957;SDS011;41120;51.820;20.804;2023-01-19T07:58:01;60.67;;;27.70;;
51957;SDS011;41120;51.820;20.804;2023-01-19T08:00:32;67.07;;;28.88;;
51957;SDS011;41120;51.820;20.804;2023-01-19T08:03:05;64.28;;;30.33;;
51957;SDS011;41120;51.820;20.804;2023-01-19T08:05:31;66.75;;;30.85;;
51957;SDS011;41120;51.820;20.804;2023-01-19T08:07:58;72.35;;;31.50;;
51957;SDS011;41120;51.820;20.804;2023-01-19T08:10:26;66.38;;;31.23;;
51957;SDS011;41120;51.820;20.804;2023-01-19T08:12:54;73.70;;;32.15;;
51957;SDS011;41120;51.820;20.804;2023-01-19T08:15:21;79.45;;;31.95;;
51957;SDS011;41120;51.820;20.804;2023-01-19T08:17:59;79.88;;;32.05;;
51957;SDS011;41120;51.820;20.804;2023-01-19T08:20:28;75.15;;;31.52;;
51957;SDS011;41120;51.820;20.804;2023-01-19T08:22:55;82.13;;;32.88;;
51957;SDS011;41120;51.820;20.804;2023-01-19T08:25:37;73.25;;;31.23;;
51957;SDS011;41120;51.820;20.804;2023-01-19T08:28:10;63.00;;;29.23;;
51957;SDS011;41120;51.820;20.804;2023-01-19T08:30:44;58.38;;;28.33;;
51957;SDS011;41120;51.820;20.804;2023-01-19T08:33:19;53.33;;;24.80;;
51957;SDS011;41120;51.820;20.804;2023-01-19T08:35:48;53.72;;;25.63;;
51957;SDS011;41120;51.820;20.804;2023-01-19T08:38:18;52.65;;;24.38;;
51957;SDS011;41120;51.820;20.804;2023-01-19T08:40:44;47.83;;;24.55;;
51957;SDS011;41120;51.820;20.804;2023-01-19T08:43:11;56.92;;;26.50;;
51957;SDS011;41120;51.820;20.804;2023-01-19T08:45:42;56.03;;;26.35;;
51957;SDS011;41120;51.820;20.804;2023-01-19T08:48:13;54.83;;;25.88;;
51957;SDS011;41120;51.820;20.804;2023-01-19T08:50:41;52.28;;;26.65;;
51957;SDS011;41120;51.820;20.804;2023-01-19T08:53:09;49.15;;;24.25;;
51957;SDS011;41120;51.820;20.804;2023-01-19T08:55:35;50.20;;;24.90;;
51957;SDS011;41120;51.820;20.804;2023-01-19T08:58:03;47.97;;;22.77;;
51957;SDS011;41120;51.820;20.804;2023-01-19T09:00:30;49.72;;;24.05;;
51957;SDS011;41120;51.820;20.804;2023-01-19T09:02:58;38.10;;;20.05;;
51957;SDS011;41120;51.820;20.804;2023-01-19T09:05:27;44.10;;;21.80;;
51957;SDS011;41120;51.820;20.804;2023-01-19T09:07:54;44.17;;;20.92;;
51957;SDS011;41120;51.820;20.804;2023-01-19T09:10:20;44.17;;;21.92;;
51957;SDS011;41120;51.820;20.804;2023-01-19T09:12:48;41.45;;;20.42;;
51957;SDS011;41120;51.820;20.804;2023-01-19T09:15:15;40.50;;;20.52;;
51957;SDS011;41120;51.820;20.804;2023-01-19T09:17:41;41.30;;;21.90;;
51957;SDS011;41120;51.820;20.804;2023-01-19T09:20:07;38.65;;;20.23;;
51957;SDS011;41120;51.820;20.804;2023-01-19T09:22:34;45.83;;;21.17;;
51957;SDS011;41120;51.820;20.804;2023-01-19T09:25:00;43.77;;;22.20;;
51957;SDS011;41120;51.820;20.804;2023-01-19T09:27:27;39.90;;;21.48;;
51957;SDS011;41120;51.820;20.804;2023-01-19T09:29:53;43.08;;;21.20;;
51957;SDS011;41120;51.820;20.804;2023-01-19T09:32:20;41.08;;;21.30;;
51957;SDS011;41120;51.820;20.804;2023-01-19T09:34:47;39.85;;;21.17;;
51957;SDS011;41120;51.820;20.804;2023-01-19T09:37:16;39.08;;;20.45;;
51957;SDS011;41120;51.820;20.804;2023-01-19T09:39:44;38.73;;;20.40;;
51957;SDS011;41120;51.820;20.804;2023-01-19T09:45:26;38.55;;;20.90;;
51957;SDS011;41120;51.820;20.804;2023-01-19T09:51:53;40.25;;;21.27;;
51957;SDS011;41120;51.820;20.804;2023-01-19T09:54:27;42.72;;;20.75;;
51957;SDS011;41120;51.820;20.804;2023-01-19T09:59:47;43.90;;;22.30;;
51957;SDS011;41120;51.820;20.804;2023-01-19T10:10:35;38.63;;;20.05;;
51957;SDS011;41120;51.820;20.804;2023-01-19T10:13:23;35.70;;;20.17;;
51957;SDS011;41120;51.820;20.804;2023-01-19T10:16:20;35.55;;;20.05;;
51957;SDS011;41120;51.820;20.804;2023-01-19T10:18:51;34.28;;;18.60;;
51957;SDS011;41120;51.820;20.804;2023-01-19T10:23:52;35.50;;;19.00;;
51957;SDS011;41120;51.820;20.804;2023-01-19T10:26:23;33.63;;;18.80;;
51957;SDS011;41120;51.820;20.804;2023-01-19T10:29:04;34.83;;;19.05;;
51957;SDS011;41120;51.820;20.804;2023-01-19T10:31:44;35.00;;;19.73;;
51957;SDS011;41120;51.820;20.804;2023-01-19T10:34:11;36.50;;;19.90;;
51957;SDS011;41120;51.820;20.804;2023-01-19T10:36:43;37.40;;;20.95;;
51957;SDS011;41120;51.820;20.804;2023-01-19T10:39:14;42.60;;;21.55;;
51957;SDS011;41120;51.820;20.804;2023-01-19T10:41:43;39.08;;;21.00;;
51957;SDS011;41120;51.820;20.804;2023-01-19T10:44:21;42.25;;;21.58;;
51957;SDS011;41120;51.820;20.804;2023-01-19T10:46:51;40.60;;;19.83;;
51957;SDS011;41120;51.820;20.804;2023-01-19T10:49:26;40.22;;;20.20;;
51957;SDS011;41120;51.820;20.804;2023-01-19T10:52:10;38.70;;;20.42;;
51957;SDS011;41120;51.820;20.804;2023-01-19T10:54:47;36.65;;;19.48;;
51957;SDS011;41120;51.820;20.804;2023-01-19T10:57:20;38.63;;;20.25;;
51957;SDS011;41120;51.820;20.804;2023-01-19T10:59:53;38.08;;;20.27;;
51957;SDS011;41120;51.820;20.804;2023-01-19T11:04:55;37.83;;;20.65;;
51957;SDS011;41120;51.820;20.804;2023-01-19T11:07:28;39.40;;;19.65;;
51957;SDS011;41120;51.820;20.804;2023-01-19T11:10:12;38.17;;;19.80;;
51957;SDS011;41120;51.820;20.804;2023-01-19T11:12:43;38.42;;;21.25;;
51957;SDS011;41120;51.820;20.804;2023-01-19T11:15:23;39.28;;;21.65;;
51957;SDS011;41120;51.820;20.804;2023-01-19T11:17:53;38.13;;;21.80;;
51957;SDS011;41120;51.820;20.804;2023-01-19T11:20:22;41.08;;;21.35;;
51957;SDS011;41120;51.820;20.804;2023-01-19T11:23:05;40.28;;;20.70;;
51957;SDS011;41120;51.820;20.804;2023-01-19T11:25:43;38.65;;;21.30;;
51957;SDS011;41120;51.820;20.804;2023-01-19T11:28:26;40.78;;;21.27;;
51957;SDS011;41120;51.820;20.804;2023-01-19T11:30:57;40.30;;;21.55;;
51957;SDS011;41120;51.820;20.804;2023-01-19T11:33:38;41.03;;;21.83;;
51957;SDS011;41120;51.820;20.804;2023-01-19T11:38:44;45.95;;;23.85;;
51957;SDS011;41120;51.820;20.804;2023-01-19T11:41:21;45.00;;;21.80;;
51957;SDS011;41120;51.820;20.804;2023-01-19T11:43:50;42.55;;;20.92;;
51957;SDS011;41120;51.820;20.804;2023-01-19T11:46:20;43.58;;;22.88;;
51957;SDS011;41120;51.820;20.804;2023-01-19T11:48:51;45.78;;;23.35;;
51957;SDS011;41120;51.820;20.804;2023-01-19T11:51:26;43.80;;;23.20;;
51957;SDS011;41120;51.820;20.804;2023-01-19T11:53:55;54.08;;;25.73;;
51957;SDS011;41120;51.820;20.804;2023-01-19T11:56:22;57.03;;;28.60;;
51957;SDS011;41120;51.820;20.804;2023-01-19T12:01:28;49.40;;;24.67;;
51957;SDS011;41120;51.820;20.804;2023-01-19T12:03:59;54.20;;;26.10;;
51957;SDS011;41120;51.820;20.804;2023-01-19T12:06:28;51.60;;;24.95;;
51957;SDS011;41120;51.820;20.804;2023-01-19T12:09:19;47.63;;;23.77;;
51957;SDS011;41120;51.820;20.804;2023-01-19T12:11:48;45.00;;;22.65;;
51957;SDS011;41120;51.820;20.804;2023-01-19T12:14:48;43.83;;;23.52;;
51957;SDS011;41120;51.820;20.804;2023-01-19T12:17:26;49.95;;;24.48;;
51957;SDS011;41120;51.820;20.804;2023-01-19T12:20:04;46.75;;;23.35;;
51957;SDS011;41120;51.820;20.804;2023-01-19T12:22:41;46.72;;;22.80;;
51957;SDS011;41120;51.820;20.804;2023-01-19T12:25:24;45.72;;;22.80;;
51957;SDS011;41120;51.820;20.804;2023-01-19T12:27:54;41.55;;;21.48;;
51957;SDS011;41120;51.820;20.804;2023-01-19T12:30:25;44.70;;;21.67;;
51957;SDS011;41120;51.820;20.804;2023-01-19T12:35:57;41.42;;;20.25;;
51957;SDS011;41120;51.820;20.804;2023-01-19T12:51:39;39.95;;;20.90;;
51957;SDS011;41120;51.820;20.804;2023-01-19T12:54:06;40.58;;;20.75;;
51957;SDS011;41120;51.820;20.804;2023-01-19T12:56:43;39.80;;;19.67;;
51957;SDS011;41120;51.820;20.804;2023-01-19T12:59:31;40.70;;;20.67;;
51957;SDS011;41120;51.820;20.804;2023-01-19T13:08:25;58.72;;;30.05;;
51957;SDS011;41120;51.820;20.804;2023-01-19T13:11:12;45.97;;;24.48;;
51957;SDS011;41120;51.820;20.804;2023-01-19T13:13:41;44.63;;;23.35;;
51957;SDS011;41120;51.820;20.804;2023-01-19T13:21:55;42.75;;;20.95;;
51957;SDS011;41120;51.820;20.804;2023-01-19T13:27:41;44.25;;;20.65;;
51957;SDS011;41120;51.820;20.804;2023-01-19T13:30:14;51.10;;;24.30;;
51957;SDS011;41120;51.820;20.804;2023-01-19T13:32:50;55.63;;;26.35;;
51957;SDS011;41120;51.820;20.804;2023-01-19T13:35:35;87.27;;;38.40;;
51957;SDS011;41120;51.820;20.804;2023-01-19T13:38:10;167.55;;;62.55;;
51957;SDS011;41120;51.820;20.804;2023-01-19T13:44:39;153.15;;;60.60;;
51957;SDS011;41120;51.820;20.804;2023-01-19T13:47:14;80.55;;;38.70;;
51957;SDS011;41120;51.820;20.804;2023-01-19T14:04:22;57.30;;;28.70;;
51957;SDS011;41120;51.820;20.804;2023-01-19T14:09:34;71.75;;;34.60;;
51957;SDS011;41120;51.820;20.804;2023-01-19T14:15:01;66.82;;;32.78;;
51957;SDS011;41120;51.820;20.804;2023-01-19T14:17:36;63.05;;;33.70;;
51957;SDS011;41120;51.820;20.804;2023-01-19T14:20:06;62.65;;;29.90;;
51957;SDS011;41120;51.820;20.804;2023-01-19T14:26:05;71.45;;;33.92;;
51957;SDS011;41120;51.820;20.804;2023-01-19T14:28:51;73.38;;;34.47;;
51957;SDS011;41120;51.820;20.804;2023-01-19T14:37:24;63.75;;;31.63;;
51957;SDS011;41120;51.820;20.804;2023-01-19T14:43:01;50.83;;;26.70;;
51957;SDS011;41120;51.820;20.804;2023-01-19T14:45:36;51.35;;;27.23;;
51957;SDS011;41120;51.820;20.804;2023-01-19T14:51:29;57.88;;;31.02;;
51957;SDS011;41120;51.820;20.804;2023-01-19T14:54:10;55.72;;;27.85;;
51957;SDS011;41120;51.820;20.804;2023-01-19T15:02:21;61.55;;;33.08;;
51957;SDS011;41120;51.820;20.804;2023-01-19T15:04:47;69.72;;;36.35;;
51957;SDS011;41120;51.820;20.804;2023-01-19T15:07:17;70.13;;;37.17;;
51957;SDS011;41120;51.820;20.804;2023-01-19T15:09:48;71.72;;;34.53;;
51957;SDS011;41120;51.820;20.804;2023-01-19T15:12:16;57.03;;;30.02;;
51957;SDS011;41120;51.820;20.804;2023-01-19T15:14:44;47.35;;;24.50;;
51957;SDS011;41120;51.820;20.804;2023-01-19T15:19:54;57.30;;;27.52;;
51957;SDS011;41120;51.820;20.804;2023-01-19T15:24:58;50.33;;;26.20;;
51957;SDS011;41120;51.820;20.804;2023-01-19T15:27:28;50.92;;;26.95;;
51957;SDS011;41120;51.820;20.804;2023-01-19T15:29:59;58.25;;;28.65;;
51957;SDS011;41120;51.820;20.804;2023-01-19T15:34:59;236.85;;;92.18;;
51957;SDS011;41120;51.820;20.804;2023-01-19T15:37:29;323.23;;;122.93;;
51957;SDS011;41120;51.820;20.804;2023-01-19T15:39:58;253.43;;;97.57;;
51957;SDS011;41120;51.820;20.804;2023-01-19T15:42:25;493.63;;;159.35;;
51957;SDS011;41120;51.820;20.804;2023-01-19T15:44:53;370.15;;;132.85;;
51957;SDS011;41120;51.820;20.804;2023-01-19T15:47:21;145.38;;;60.00;;
51957;SDS011;41120;51.820;20.804;2023-01-19T15:49:48;90.78;;;40.17;;
51957;SDS011;41120;51.820;20.804;2023-01-19T15:52:14;278.38;;;95.10;;
51957;SDS011;41120;51.820;20.804;2023-01-19T15:54:43;142.40;;;55.80;;
51957;SDS011;41120;51.820;20.804;2023-01-19T15:57:14;193.55;;;76.40;;
51957;SDS011;41120;51.820;20.804;2023-01-19T15:59:43;199.27;;;74.80;;
51957;SDS011;41120;51.820;20.804;2023-01-19T16:02:09;170.30;;;84.80;;
51957;SDS011;41120;51.820;20.804;2023-01-19T16:04:35;140.27;;;75.65;;
51957;SDS011;41120;51.820;20.804;2023-01-19T16:07:03;110.27;;;59.27;;
51957;SDS011;41120;51.820;20.804;2023-01-19T16:12:18;78.22;;;37.53;;
51957;SDS011;41120;51.820;20.804;2023-01-19T16:14:48;80.32;;;41.47;;
51957;SDS011;41120;51.820;20.804;2023-01-19T16:17:18;100.70;;;48.15;;
51957;SDS011;41120;51.820;20.804;2023-01-19T16:22:28;73.90;;;37.40;;
51957;SDS011;41120;51.820;20.804;2023-01-19T16:30:28;57.08;;;28.52;;
51957;SDS011;41120;51.820;20.804;2023-01-19T16:33:08;207.20;;;75.80;;
51957;SDS011;41120;51.820;20.804;2023-01-19T16:35:51;144.07;;;55.60;;
51957;SDS011;41120;51.820;20.804;2023-01-19T16:41:31;97.85;;;56.22;;
51957;SDS011;41120;51.820;20.804;2023-01-19T16:46:49;50.65;;;25.10;;
51957;SDS011;41120;51.820;20.804;2023-01-19T16:49:19;49.10;;;25.27;;
51957;SDS011;41120;51.820;20.804;2023-01-19T16:51:49;58.10;;;30.15;;
51957;SDS011;41120;51.820;20.804;2023-01-19T16:54:29;55.22;;;26.85;;
51957;SDS011;41120;51.820;20.804;2023-01-19T16:56:58;56.25;;;28.15;;
51957;SDS011;41120;51.820;20.804;2023-01-19T17:02:33;51.70;;;26.10;;
51957;SDS011;41120;51.820;20.804;2023-01-19T17:05:00;56.40;;;26.58;;
51957;SDS011;41120;51.820;20.804;2023-01-19T17:07:27;59.35;;;26.65;;
51957;SDS011;41120;51.820;20.804;2023-01-19T17:12:35;55.35;;;28.00;;
51957;SDS011;41120;51.820;20.804;2023-01-19T17:15:03;57.17;;;28.75;;
51957;SDS011;41120;51.820;20.804;2023-01-19T17:17:36;56.42;;;27.45;;
51957;SDS011;41120;51.820;20.804;2023-01-19T17:20:05;396.13;;;216.57;;
51957;SDS011;41120;51.820;20.804;2023-01-19T17:22:32;288.88;;;158.65;;
51957;SDS011;41120;51.820;20.804;2023-01-19T17:25:04;157.35;;;68.97;;
51957;SDS011;41120;51.820;20.804;2023-01-19T17:27:42;97.72;;;44.97;;
51957;SDS011;41120;51.820;20.804;2023-01-19T17:32:48;90.00;;;36.17;;
51957;SDS011;41120;51.820;20.804;2023-01-19T17:35:26;71.25;;;34.40;;
51957;SDS011;41120;51.820;20.804;2023-01-19T17:37:58;62.10;;;30.42;;
51957;SDS011;41120;51.820;20.804;2023-01-19T17:40:28;65.78;;;32.25;;
51957;SDS011;41120;51.820;20.804;2023-01-19T17:45:28;71.65;;;33.53;;
51957;SDS011;41120;51.820;20.804;2023-01-19T17:48:01;68.18;;;32.13;;
51957;SDS011;41120;51.820;20.804;2023-01-19T17:50:31;70.78;;;30.05;;
51957;SDS011;41120;51.820;20.804;2023-01-19T17:56:24;78.55;;;32.15;;
51957;SDS011;41120;51.820;20.804;2023-01-19T18:04:27;91.07;;;36.35;;
51957;SDS011;41120;51.820;20.804;2023-01-19T18:06:55;83.00;;;35.78;;
51957;SDS011;41120;51.820;20.804;2023-01-19T18:15:00;88.65;;;35.47;;
51957;SDS011;41120;51.820;20.804;2023-01-19T18:20:31;89.47;;;37.03;;
51957;SDS011;41120;51.820;20.804;2023-01-19T18:22:58;84.90;;;33.83;;
51957;SDS011;41120;51.820;20.804;2023-01-19T18:28:30;90.57;;;35.83;;
51957;SDS011;41120;51.820;20.804;2023-01-19T18:31:06;89.95;;;35.85;;
51957;SDS011;41120;51.820;20.804;2023-01-19T18:38:52;100.82;;;36.15;;
51957;SDS011;41120;51.820;20.804;2023-01-19T18:41:20;102.35;;;38.90;;
51957;SDS011;41120;51.820;20.804;2023-01-19T18:43:55;102.38;;;39.58;;
51957;SDS011;41120;51.820;20.804;2023-01-19T18:49:29;99.40;;;38.83;;
51957;SDS011;41120;51.820;20.804;2023-01-19T18:51:56;114.95;;;43.90;;
51957;SDS011;41120;51.820;20.804;2023-01-19T18:54:22;109.93;;;38.85;;
51957;SDS011;41120;51.820;20.804;2023-01-19T19:02:19;138.68;;;46.50;;
51957;SDS011;41120;51.820;20.804;2023-01-19T19:04:45;119.95;;;49.22;;
51957;SDS011;41120;51.820;20.804;2023-01-19T19:07:25;118.28;;;41.25;;
51957;SDS011;41120;51.820;20.804;2023-01-19T19:09:56;105.47;;;39.10;;
51957;SDS011;41120;51.820;20.804;2023-01-19T19:12:26;117.45;;;39.95;;
51957;SDS011;41120;51.820;20.804;2023-01-19T19:14:53;110.10;;;40.17;;
51957;SDS011;41120;51.820;20.804;2023-01-19T19:17:19;107.97;;;38.60;;
51957;SDS011;41120;51.820;20.804;2023-01-19T19:22:20;108.00;;;39.22;;
51957;SDS011;41120;51.820;20.804;2023-01-19T19:24:53;113.32;;;41.85;;
51957;SDS011;41120;51.820;20.804;2023-01-19T19:27:20;113.15;;;39.80;;
51957;SDS011;41120;51.820;20.804;2023-01-19T19:29:49;106.68;;;36.80;;
51957;SDS011;41120;51.820;20.804;2023-01-19T19:32:27;112.95;;;37.83;;
51957;SDS011;41120;51.820;20.804;2023-01-19T19:39:53;101.13;;;38.33;;
51957;SDS011;41120;51.820;20.804;2023-01-19T19:42:25;104.40;;;37.65;;
51957;SDS011;41120;51.820;20.804;2023-01-19T19:44:56;103.85;;;37.13;;
51957;SDS011;41120;51.820;20.804;2023-01-19T19:47:32;139.55;;;47.53;;
51957;SDS011;41120;51.820;20.804;2023-01-19T19:50:02;121.68;;;42.58;;
51957;SDS011;41120;51.820;20.804;2023-01-19T19:52:29;142.15;;;48.85;;
51957;SDS011;41120;51.820;20.804;2023-01-19T19:55:03;130.77;;;45.67;;
51957;SDS011;41120;51.820;20.804;2023-01-19T19:57:34;114.32;;;44.28;;
51957;SDS011;41120;51.820;20.804;2023-01-19T20:00:00;124.80;;;44.88;;
51957;SDS011;41120;51.820;20.804;2023-01-19T20:02:32;124.82;;;42.08;;
51957;SDS011;41120;51.820;20.804;2023-01-19T20:04:58;110.15;;;37.80;;
51957;SDS011;41120;51.820;20.804;2023-01-19T20:07:24;122.22;;;43.08;;
51957;SDS011;41120;51.820;20.804;2023-01-19T20:09:52;143.13;;;48.15;;
51957;SDS011;41120;51.820;20.804;2023-01-19T20:12:26;109.25;;;38.50;;
51957;SDS011;41120;51.820;20.804;2023-01-19T20:14:54;104.85;;;37.63;;
51957;SDS011;41120;51.820;20.804;2023-01-19T20:17:22;90.78;;;34.30;;
51957;SDS011;41120;51.820;20.804;2023-01-19T20:19:54;122.72;;;48.53;;
51957;SDS011;41120;51.820;20.804;2023-01-19T20:22:21;120.43;;;44.97;;
51957;SDS011;41120;51.820;20.804;2023-01-19T20:24:48;101.97;;;38.60;;
51957;SDS011;41120;51.820;20.804;2023-01-19T20:32:24;100.05;;;40.55;;
51957;SDS011;41120;51.820;20.804;2023-01-19T20:34:59;94.13;;;34.50;;
51957;SDS011;41120;51.820;20.804;2023-01-19T20:37:25;109.65;;;41.08;;
51957;SDS011;41120;51.820;20.804;2023-01-19T20:39:53;135.77;;;55.37;;
51957;SDS011;41120;51.820;20.804;2023-01-19T20:42:20;91.28;;;35.20;;
51957;SDS011;41120;51.820;20.804;2023-01-19T20:44:46;88.80;;;32.60;;
51957;SDS011;41120;51.820;20.804;2023-01-19T20:47:13;89.10;;;35.25;;
51957;SDS011;41120;51.820;20.804;2023-01-19T20:52:10;84.35;;;32.83;;
51957;SDS011;41120;51.820;20.804;2023-01-19T20:57:24;75.53;;;28.88;;
51957;SDS011;41120;51.820;20.804;2023-01-19T20:59:52;76.87;;;29.97;;
51957;SDS011;41120;51.820;20.804;2023-01-19T21:02:21;64.70;;;25.60;;